Time;durP1;ratioP1;P1;durP2;ratioP2;P2;SDS_P1;SDS_P2;PMS_P1;PMS_P2;Temp;Humidity;BMP_temperature;BMP_pressure;BME280_temperature;BME280_humidity;BME280_pressure;Samples;Min_cycle;Max_cycle;Signal;HPM_P1;HPM_P2
2022/02/14 00:02:02;;;;;;;9.43;4.82;;;8.50;94.90;;;;;;5033489;28;20049;-71
2022/02/14 00:04:27;;;;;;;10.82;4.78;;;8.50;95.00;;;;;;5051709;28;20069;-72
2022/02/14 00:06:53;;;;;;;9.90;5.43;;;8.50;95.00;;;;;;5051721;28;20449;-71
2022/02/14 00:09:19;;;;;;;7.15;4.10;;;8.50;95.20;;;;;;5033823;28;20478;-72
2022/02/14 00:11:45;;;;;;;7.93;4.40;;;8.50;95.20;;;;;;5051227;28;20033;-71
2022/02/14 00:14:11;;;;;;;6.00;4.47;;;8.50;95.40;;;;;;5033651;28;20440;-71
2022/02/14 00:16:36;;;;;;;8.52;5.10;;;8.50;95.50;;;;;;5051642;28;20041;-72
2022/02/14 00:19:02;;;;;;;11.32;5.20;;;8.50;95.30;;;;;;5051506;28;20398;-72
2022/02/14 00:21:28;;;;;;;12.70;5.47;;;8.50;95.40;;;;;;5033375;28;20072;-72
2022/02/14 00:23:53;;;;;;;7.47;4.50;;;8.60;95.20;;;;;;5051395;28;20075;-71
2022/02/14 00:26:19;;;;;;;8.90;4.88;;;8.60;95.30;;;;;;5050168;28;20037;-72
2022/02/14 00:28:45;;;;;;;9.73;4.60;;;8.60;95.30;;;;;;5051491;28;20037;-72
2022/02/14 00:31:10;;;;;;;7.35;4.25;;;8.60;95.70;;;;;;5033500;28;20112;-72
2022/02/14 00:33:36;;;;;;;9.77;4.72;;;8.60;95.80;;;;;;5033572;28;20505;-72
2022/02/14 00:36:01;;;;;;;8.20;4.82;;;8.60;95.70;;;;;;5051353;28;20037;-73
2022/02/14 00:38:27;;;;;;;9.07;4.75;;;8.70;95.50;;;;;;5051330;28;20041;-72
2022/02/14 00:40:52;;;;;;;8.48;5.18;;;8.70;95.60;;;;;;5050951;28;20538;-72
2022/02/14 00:43:18;;;;;;;8.25;4.45;;;8.70;95.70;;;;;;5033267;28;20387;-71
2022/02/14 00:45:44;;;;;;;9.45;4.68;;;8.70;95.60;;;;;;5017169;28;20429;-72
2022/02/14 00:48:11;;;;;;;7.72;4.05;;;8.80;95.40;;;;;;5051365;28;20040;-71
2022/02/14 00:50:37;;;;;;;7.55;4.28;;;8.80;95.80;;;;;;5051164;28;20037;-72
2022/02/14 00:53:04;;;;;;;10.43;4.43;;;8.80;95.70;;;;;;5033297;28;20483;-72
2022/02/14 00:55:30;;;;;;;9.50;4.43;;;8.80;95.70;;;;;;5051098;28;20047;-72
2022/02/14 00:57:56;;;;;;;8.38;5.07;;;8.80;95.70;;;;;;5051366;28;20073;-72
2022/02/14 01:00:22;;;;;;;7.43;4.47;;;8.80;95.90;;;;;;5017339;28;20072;-72
2022/02/14 01:02:47;;;;;;;6.97;4.72;;;8.80;96.00;;;;;;5036612;28;20084;-72
2022/02/14 01:05:13;;;;;;;9.70;4.43;;;8.80;96.10;;;;;;5054931;28;20037;-72
2022/02/14 01:07:39;;;;;;;10.63;4.70;;;8.80;96.10;;;;;;5054813;28;20041;-72
2022/02/14 01:10:07;;;;;;;10.07;4.50;;;8.80;96.10;;;;;;5037125;28;20037;-72
2022/02/14 01:12:33;;;;;;;11.63;4.40;;;8.80;96.20;;;;;;5036575;28;20056;-72
2022/02/14 01:14:59;;;;;;;12.02;4.78;;;8.90;96.10;;;;;;5054952;28;20173;-71
2022/02/14 01:17:25;;;;;;;11.85;4.57;;;8.90;96.20;;;;;;5054796;28;20041;-72
2022/02/14 01:19:51;;;;;;;6.30;4.13;;;8.90;96.00;;;;;;5036727;28;20072;-72
2022/02/14 01:22:17;;;;;;;9.43;3.97;;;9.00;96.00;;;;;;5054229;28;20470;-72
2022/02/14 01:24:42;;;;;;;7.45;4.93;;;8.90;96.50;;;;;;5036598;28;20127;-72
2022/02/14 01:27:08;;;;;;;10.70;4.90;;;8.90;96.20;;;;;;5054761;28;20628;-72
2022/02/14 01:29:34;;;;;;;9.93;5.20;;;8.90;96.30;;;;;;5036517;28;20044;-72
2022/02/14 01:32:01;;;;;;;7.68;4.38;;;8.90;96.40;;;;;;5054204;28;20037;-72
2022/02/14 01:34:26;;;;;;;10.00;4.22;;;8.80;96.40;;;;;;5054352;28;20091;-72
2022/02/14 01:36:53;;;;;;;8.05;4.72;;;8.80;96.50;;;;;;5036670;28;20053;-72
2022/02/14 01:39:19;;;;;;;10.55;4.40;;;8.70;96.60;;;;;;5054159;28;20041;-72
2022/02/14 01:41:45;;;;;;;9.55;4.45;;;8.80;96.40;;;;;;5036034;28;20055;-72
2022/02/14 01:44:12;;;;;;;6.40;4.75;;;8.70;96.50;;;;;;5020056;28;20124;-71
2022/02/14 01:46:38;;;;;;;6.07;4.38;;;8.70;96.90;;;;;;5036213;28;20049;-71
2022/02/14 01:49:04;;;;;;;6.70;4.30;;;8.60;97.20;;;;;;5019776;28;20033;-72
2022/02/14 01:51:32;;;;;;;11.90;4.07;;;8.50;97.40;;;;;;5036211;28;20375;-72
2022/02/14 01:53:58;;;;;;;11.27;5.07;;;8.50;97.50;;;;;;5053821;28;20036;-72
2022/02/14 01:56:24;;;;;;;9.88;4.32;;;8.50;97.60;;;;;;5036019;28;20084;-72
2022/02/14 01:58:49;;;;;;;8.10;4.13;;;8.40;97.90;;;;;;5035930;28;20072;-72
2022/02/14 02:01:15;;;;;;;10.77;4.60;;;8.50;98.00;;;;;;5036026;28;20098;-72
2022/02/14 02:03:40;;;;;;;6.75;3.92;;;8.40;98.20;;;;;;5035755;28;20076;-72
2022/02/14 02:06:09;;;;;;;8.93;4.20;;;8.40;98.60;;;;;;5036176;28;20071;-71
2022/02/14 02:08:35;;;;;;;9.85;4.47;;;8.30;98.80;;;;;;5036053;28;20406;-71
2022/02/14 02:13:49;;;;;;;14.35;5.03;;;8.30;99.10;;;;;;5035565;28;20118;-72
2022/02/14 02:16:15;;;;;;;7.18;4.32;;;8.30;99.30;;;;;;5053630;28;20040;-71
2022/02/14 02:18:41;;;;;;;14.10;4.95;;;8.30;99.50;;;;;;5053421;28;20041;-72
2022/02/14 02:21:06;;;;;;;9.65;5.68;;;8.30;99.90;;;;;;5053370;28;20044;-72
2022/02/14 02:23:32;;;;;;;13.80;5.53;;;8.30;99.90;;;;;;5035407;28;20045;-72
2022/02/14 02:25:57;;;;;;;11.82;5.00;;;8.30;99.90;;;;;;5035743;28;20041;-71
2022/02/14 02:28:23;;;;;;;9.32;4.25;;;8.40;99.90;;;;;;5053429;28;20037;-71
2022/02/14 02:30:49;;;;;;;10.65;5.15;;;8.40;99.90;;;;;;5035552;28;20040;-72
2022/02/14 02:33:14;;;;;;;7.55;3.70;;;8.40;99.90;;;;;;5035136;28;20076;-71
2022/02/14 02:35:40;;;;;;;9.57;3.97;;;8.50;99.90;;;;;;5052228;28;20059;-71
2022/02/14 02:38:05;;;;;;;8.05;4.35;;;8.50;99.90;;;;;;5053182;28;20102;-72
2022/02/14 02:40:31;;;;;;;11.38;4.85;;;8.60;99.90;;;;;;5035194;28;20041;-72
2022/02/14 02:42:57;;;;;;;9.93;4.53;;;8.50;99.90;;;;;;5018479;28;20460;-72
2022/02/14 02:45:22;;;;;;;8.98;4.63;;;8.60;99.90;;;;;;5035131;28;20056;-72
2022/02/14 02:47:48;;;;;;;10.05;4.22;;;8.60;99.90;;;;;;5052912;28;20032;-71
2022/02/14 02:50:14;;;;;;;7.22;4.18;;;8.60;99.90;;;;;;5053106;28;20111;-72
2022/02/14 02:52:40;;;;;;;6.07;3.92;;;8.70;99.90;;;;;;5034708;28;20049;-72
2022/02/14 02:55:05;;;;;;;10.15;4.15;;;8.70;99.90;;;;;;5052939;28;20039;-71
2022/02/14 02:57:31;;;;;;;9.57;4.68;;;8.70;99.90;;;;;;5034885;28;20517;-71
2022/02/14 02:59:56;;;;;;;6.65;3.92;;;8.80;99.90;;;;;;5052797;28;20041;-71
2022/02/14 03:02:22;;;;;;;7.90;3.90;;;8.80;99.90;;;;;;5034413;28;20049;-71
2022/02/14 03:04:48;;;;;;;10.45;4.40;;;8.80;99.90;;;;;;5052522;28;20540;-71
2022/02/14 03:07:14;;;;;;;7.55;3.60;;;8.80;99.90;;;;;;5052767;28;20037;-72
2022/02/14 03:09:40;;;;;;;13.45;4.07;;;8.80;99.90;;;;;;5052773;28;20036;-71
2022/02/14 03:12:06;;;;;;;10.75;4.38;;;8.80;99.70;;;;;;5034395;28;20530;-72
2022/02/14 03:14:31;;;;;;;8.40;4.20;;;8.80;99.80;;;;;;5039157;23;20045;-71
2022/02/14 03:16:58;;;;;;;8.48;3.97;;;8.90;99.60;;;;;;5052427;28;20037;-71
2022/02/14 03:19:24;;;;;;;5.38;3.92;;;8.90;99.50;;;;;;5052182;28;20111;-71
2022/02/14 03:21:50;;;;;;;11.95;4.15;;;8.90;99.50;;;;;;5051438;28;20041;-72
2022/02/14 03:24:15;;;;;;;8.93;3.80;;;8.80;99.40;;;;;;5051532;28;20508;-72
2022/02/14 03:26:41;;;;;;;8.88;3.78;;;8.80;99.60;;;;;;5052529;28;20075;-72
2022/02/14 03:29:07;;;;;;;8.95;3.80;;;8.80;99.60;;;;;;5052392;28;20090;-72
2022/02/14 03:31:32;;;;;;;9.68;4.05;;;8.80;99.80;;;;;;5051942;28;20036;-71
2022/02/14 03:33:58;;;;;;;11.85;5.18;;;8.70;99.90;;;;;;5052388;28;20033;-72
2022/02/14 03:36:23;;;;;;;8.55;4.40;;;8.70;99.90;;;;;;5052304;28;20049;-72
2022/02/14 03:38:50;;;;;;;10.65;3.72;;;8.70;99.90;;;;;;5052359;28;20045;-72
2022/02/14 03:41:17;;;;;;;11.05;3.88;;;8.70;99.90;;;;;;5051892;28;20052;-72
2022/02/14 03:43:42;;;;;;;5.30;3.22;;;8.70;99.90;;;;;;5051952;28;20068;-72
2022/02/14 03:46:08;;;;;;;5.32;3.50;;;8.70;99.90;;;;;;5051954;28;20487;-72
2022/02/14 03:48:34;;;;;;;9.38;4.28;;;8.80;99.90;;;;;;5037221;28;20103;-71
2022/02/14 03:51:00;;;;;;;7.82;4.15;;;8.80;99.90;;;;;;5054593;28;20037;-71
2022/02/14 03:53:27;;;;;;;8.43;4.00;;;8.80;99.90;;;;;;5052113;28;20041;-72
2022/02/14 03:55:52;;;;;;;8.90;4.40;;;8.80;99.90;;;;;;5052060;28;20044;-72
2022/02/14 03:58:18;;;;;;;8.63;3.47;;;8.80;99.90;;;;;;5051986;28;20037;-72
2022/02/14 04:00:44;;;;;;;7.53;3.70;;;8.90;99.90;;;;;;5034183;28;20422;-72
2022/02/14 04:03:10;;;;;;;5.85;3.42;;;8.80;99.90;;;;;;5033603;28;20041;-72
2022/02/14 04:05:36;;;;;;;7.60;3.75;;;8.90;99.90;;;;;;5052002;28;20033;-72
2022/02/14 04:08:02;;;;;;;5.93;3.40;;;8.90;99.90;;;;;;5051832;28;20032;-72
2022/02/14 04:10:28;;;;;;;6.47;3.03;;;8.90;99.90;;;;;;5051967;28;20037;-72
2022/02/14 04:12:54;;;;;;;11.88;4.03;;;8.90;99.90;;;;;;5051227;28;20044;-71
2022/02/14 04:15:20;;;;;;;7.40;3.60;;;8.90;99.90;;;;;;5051622;28;20036;-72
2022/02/14 04:17:46;;;;;;;11.43;3.83;;;8.90;99.90;;;;;;5051706;28;20394;-71
2022/02/14 04:20:12;;;;;;;5.57;3.22;;;8.90;99.90;;;;;;5051840;28;20082;-72
2022/02/14 04:22:40;;;;;;;13.38;4.10;;;8.90;99.90;;;;;;5051444;28;20116;-72
2022/02/14 04:25:07;;;;;;;8.02;3.10;;;8.90;99.90;;;;;;5033776;28;20041;-71
2022/02/14 04:27:33;;;;;;;7.18;3.35;;;8.80;99.90;;;;;;5051457;28;20086;-72
2022/02/14 04:29:58;;;;;;;6.35;3.40;;;8.90;99.90;;;;;;5051437;28;20037;-71
2022/02/14 04:32:24;;;;;;;7.38;2.95;;;8.80;99.90;;;;;;5051468;28;20047;-72
2022/02/14 04:34:49;;;;;;;10.75;3.40;;;8.80;99.90;;;;;;5052933;28;20048;-72
2022/02/14 04:37:16;;;;;;;8.60;3.42;;;8.90;99.90;;;;;;5055772;28;20640;-71
2022/02/14 04:39:42;;;;;;;5.78;3.30;;;8.80;99.90;;;;;;5037661;28;20622;-71
2022/02/14 04:42:07;;;;;;;11.05;4.90;;;8.80;99.90;;;;;;5037307;28;20653;-71
2022/02/14 04:44:33;;;;;;;7.40;3.22;;;8.90;99.90;;;;;;5055293;28;20043;-72
2022/02/14 04:46:58;;;;;;;7.10;3.42;;;8.90;99.90;;;;;;5055436;28;20041;-72
2022/02/14 04:49:24;;;;;;;10.32;3.42;;;9.00;99.90;;;;;;5055492;28;20124;-71
2022/02/14 04:51:49;;;;;;;11.25;3.83;;;9.00;99.90;;;;;;5037230;28;20124;-72
2022/02/14 04:54:15;;;;;;;7.00;2.95;;;9.00;99.90;;;;;;5037412;28;20116;-72
2022/02/14 04:56:40;;;;;;;9.60;3.45;;;9.00;99.90;;;;;;5055255;28;20131;-72
2022/02/14 04:59:07;;;;;;;8.07;3.13;;;8.90;99.90;;;;;;5055074;28;20059;-72
2022/02/14 05:01:32;;;;;;;7.47;2.92;;;9.00;99.90;;;;;;5054767;28;20501;-72
2022/02/14 05:03:58;;;;;;;6.72;3.22;;;9.00;99.90;;;;;;5055144;28;20037;-72
2022/02/14 05:06:23;;;;;;;6.82;3.67;;;9.00;99.90;;;;;;5055147;28;20037;-71
2022/02/14 05:08:49;;;;;;;9.88;4.00;;;9.00;99.90;;;;;;5054968;28;20045;-72
2022/02/14 05:11:15;;;;;;;7.72;3.70;;;9.00;99.90;;;;;;5054652;28;20537;-71
2022/02/14 05:13:41;;;;;;;8.68;3.33;;;8.90;99.90;;;;;;5054561;28;20043;-72
2022/02/14 05:16:10;;;;;;;6.60;3.25;;;9.00;99.90;;;;;;5054788;28;20040;-72
2022/02/14 05:18:36;;;;;;;6.30;4.07;;;9.00;99.90;;;;;;5055006;28;20049;-72
2022/02/14 05:21:01;;;;;;;9.77;3.30;;;9.10;99.90;;;;;;5054373;28;20447;-72
2022/02/14 05:23:27;;;;;;;6.70;3.35;;;9.10;99.90;;;;;;5054681;28;20044;-72
2022/02/14 05:25:53;;;;;;;5.28;2.53;;;9.10;99.90;;;;;;5054700;28;20482;-72
2022/02/14 05:28:18;;;;;;;12.00;3.78;;;9.10;99.90;;;;;;5054530;28;20036;-72
2022/02/14 05:30:44;;;;;;;6.50;3.00;;;9.20;99.90;;;;;;5054687;28;20064;-72
2022/02/14 05:33:10;;;;;;;11.63;3.50;;;9.20;99.90;;;;;;5036316;28;20091;-72
2022/02/14 05:35:35;;;;;;;8.13;3.00;;;9.20;99.90;;;;;;5036759;28;20037;-72
2022/02/14 05:38:01;;;;;;;7.03;3.13;;;9.30;99.90;;;;;;5054518;28;20039;-72
2022/02/14 05:40:28;;;;;;;6.47;3.28;;;9.30;99.90;;;;;;5054345;28;20121;-72
2022/02/14 05:42:54;;;;;;;5.85;2.90;;;9.30;99.90;;;;;;5053836;28;20041;-72
2022/02/14 05:45:19;;;;;;;6.97;2.80;;;9.30;99.90;;;;;;5054251;28;20094;-72
2022/02/14 05:47:45;;;;;;;6.45;3.38;;;9.30;99.90;;;;;;5053532;28;20033;-72
2022/02/14 05:50:11;;;;;;;5.20;3.08;;;9.30;99.90;;;;;;5054325;28;20048;-72
2022/02/14 05:52:39;;;;;;;6.00;2.75;;;9.30;99.90;;;;;;5036187;28;20048;-72
2022/02/14 05:55:05;;;;;;;9.85;3.45;;;9.40;99.80;;;;;;5054030;28;20118;-72
2022/02/14 05:57:31;;;;;;;8.52;3.33;;;9.50;99.40;;;;;;5053981;28;20041;-72
2022/02/14 05:59:56;;;;;;;9.55;3.05;;;9.50;99.30;;;;;;5036148;28;20036;-72
2022/02/14 06:02:22;;;;;;;6.00;2.90;;;9.50;99.50;;;;;;5035862;28;20041;-72
2022/02/14 06:04:47;;;;;;;7.22;3.08;;;9.50;99.50;;;;;;5053988;28;20124;-72
2022/02/14 06:07:13;;;;;;;7.50;3.60;;;9.40;99.80;;;;;;5019866;28;20116;-72
2022/02/14 06:09:38;;;;;;;6.28;2.85;;;9.40;99.90;;;;;;5053890;28;20087;-72
2022/02/14 06:12:04;;;;;;;9.80;2.97;;;9.50;99.90;;;;;;5053483;28;20048;-72
2022/02/14 06:14:32;;;;;;;7.00;2.75;;;9.50;99.90;;;;;;5053600;28;20037;-72
2022/02/14 06:16:59;;;;;;;10.07;3.28;;;9.50;99.80;;;;;;5053552;28;20513;-73
2022/02/14 06:19:24;;;;;;;7.65;2.60;;;9.50;99.80;;;;;;5053739;28;20056;-72
2022/02/14 06:21:50;;;;;;;7.28;2.92;;;9.50;99.60;;;;;;5053358;28;20045;-72
2022/02/14 06:24:17;;;;;;;5.32;2.78;;;9.50;99.60;;;;;;5053537;28;20162;-72
2022/02/14 06:26:42;;;;;;;7.53;2.90;;;9.50;99.60;;;;;;5053423;28;20037;-72
2022/02/14 06:29:08;;;;;;;4.90;2.40;;;9.50;99.60;;;;;;5035656;28;20048;-72
2022/02/14 06:31:34;;;;;;;6.35;2.55;;;9.50;99.60;;;;;;5053294;28;20036;-72
2022/02/14 06:34:00;;;;;;;6.70;2.90;;;9.50;99.70;;;;;;5053355;28;20049;-72
2022/02/14 06:36:27;;;;;;;4.80;2.95;;;9.50;99.70;;;;;;5053453;28;20036;-72
2022/02/14 06:38:57;;;;;;;4.22;3.72;;;9.50;99.60;;;;;;5053270;28;20055;-72
2022/02/14 06:41:23;;;;;;;9.07;2.88;;;9.50;99.70;;;;;;5053098;28;20056;-72
2022/02/14 06:43:50;;;;;;;4.70;2.53;;;9.50;99.90;;;;;;5053061;28;20033;-71
2022/02/14 06:46:16;;;;;;;4.13;2.47;;;9.60;99.70;;;;;;5053125;28;20116;-71
2022/02/14 06:48:41;;;;;;;4.93;2.65;;;9.60;99.40;;;;;;5053186;28;20068;-71
2022/02/14 06:51:07;;;;;;;6.25;2.60;;;9.70;99.30;;;;;;5052791;28;20082;-71
2022/02/14 06:53:33;;;;;;;9.07;2.75;;;9.60;99.40;;;;;;5052853;28;20536;-71
2022/02/14 06:56:00;;;;;;;6.88;2.55;;;9.70;99.40;;;;;;5053113;28;20052;-71
2022/02/14 06:58:26;;;;;;;8.35;3.40;;;9.70;99.30;;;;;;5053024;28;20049;-71
2022/02/14 07:00:52;;;;;;;5.63;2.67;;;9.60;99.50;;;;;;5052832;28;20056;-71
2022/02/14 07:03:18;;;;;;;5.88;3.08;;;9.60;99.50;;;;;;5034824;28;20045;-71
2022/02/14 07:05:43;;;;;;;6.47;2.70;;;9.60;99.50;;;;;;5052646;28;20032;-71
2022/02/14 07:08:09;;;;;;;6.00;2.55;;;9.60;99.50;;;;;;5052796;28;20048;-71
2022/02/14 07:10:35;;;;;;;4.80;2.97;;;9.70;99.60;;;;;;5052911;28;20064;-72
2022/02/14 07:13:01;;;;;;;6.50;2.72;;;9.70;99.60;;;;;;5052392;28;20045;-73
2022/02/14 07:15:27;;;;;;;4.88;2.95;;;9.70;99.40;;;;;;5034792;28;20045;-71
2022/02/14 07:17:53;;;;;;;9.70;2.80;;;9.70;99.70;;;;;;5052580;28;20029;-72
2022/02/14 07:20:20;;;;;;;6.70;2.67;;;9.70;99.70;;;;;;5052569;28;20118;-72
2022/02/14 07:22:46;;;;;;;9.25;2.55;;;9.70;99.50;;;;;;5051980;28;20033;-72
2022/02/14 07:25:12;;;;;;;5.00;2.33;;;9.70;99.70;;;;;;5052643;28;20120;-71
2022/02/14 07:27:38;;;;;;;5.35;2.42;;;9.70;99.90;;;;;;5052443;28;20538;-72
2022/02/14 07:30:07;;;;;;;5.38;2.50;;;9.70;99.70;;;;;;5034421;28;20136;-72
2022/02/14 07:32:32;;;;;;;3.55;2.55;;;9.70;99.70;;;;;;5052133;28;20041;-72
2022/02/14 07:34:58;;;;;;;8.43;2.50;;;9.70;99.90;;;;;;5051657;28;20039;-72
2022/02/14 07:37:25;;;;;;;3.97;2.30;;;9.80;99.70;;;;;;5051902;28;20128;-72
2022/02/14 07:39:51;;;;;;;4.97;2.50;;;9.80;99.80;;;;;;5052221;28;20037;-72
2022/02/14 07:42:16;;;;;;;6.00;2.47;;;9.80;99.80;;;;;;5051851;28;20102;-72
2022/02/14 07:44:42;;;;;;;4.65;2.97;;;9.80;99.70;;;;;;5052123;28;20065;-72
2022/02/14 07:47:07;;;;;;;4.22;2.38;;;9.80;99.90;;;;;;5052136;28;20033;-71
2022/02/14 07:49:33;;;;;;;6.63;2.10;;;9.80;99.90;;;;;;5052082;28;20043;-72
2022/02/14 07:51:59;;;;;;;5.60;2.70;;;9.80;99.90;;;;;;5051560;28;20037;-72
2022/02/14 07:54:24;;;;;;;6.95;2.53;;;9.90;99.90;;;;;;5052004;28;20086;-72
2022/02/14 07:56:50;;;;;;;5.00;2.45;;;9.90;99.90;;;;;;5034008;28;20090;-72
2022/02/14 07:59:15;;;;;;;4.32;2.35;;;9.90;99.90;;;;;;5051840;28;20041;-72
2022/02/14 08:01:41;;;;;;;5.72;2.65;;;9.90;99.80;;;;;;5051049;28;20037;-72
2022/02/14 08:04:07;;;;;;;4.53;2.25;;;10.00;99.60;;;;;;5050818;28;20033;-72
2022/02/14 08:06:33;;;;;;;6.97;2.95;;;9.90;99.90;;;;;;5051255;28;20059;-72
2022/02/14 08:08:59;;;;;;;8.52;2.97;;;10.00;99.90;;;;;;5017063;28;20040;-72
2022/02/14 08:11:25;;;;;;;6.07;2.38;;;10.00;99.90;;;;;;5051331;28;20051;-72
2022/02/14 08:13:50;;;;;;;3.33;2.20;;;10.00;99.90;;;;;;5033986;28;20407;-72
2022/02/14 08:16:16;;;;;;;6.72;2.70;;;10.00;99.90;;;;;;5051744;28;20490;-72
2022/02/14 08:18:42;;;;;;;6.15;2.72;;;10.00;99.90;;;;;;5033799;28;20108;-72
2022/02/14 08:21:08;;;;;;;5.30;2.30;;;9.90;99.90;;;;;;5051209;28;20032;-72
2022/02/14 08:23:33;;;;;;;5.05;2.50;;;9.90;99.90;;;;;;5051349;28;20073;-72
2022/02/14 08:25:59;;;;;;;7.03;2.22;;;9.90;99.90;;;;;;5051632;28;20064;-72
2022/02/14 08:28:24;;;;;;;3.60;1.90;;;9.90;99.90;;;;;;5051717;28;20418;-72
2022/02/14 08:30:51;;;;;;;6.50;2.97;;;9.90;99.90;;;;;;5033523;28;20040;-73
2022/02/14 08:33:17;;;;;;;5.95;2.70;;;9.90;99.90;;;;;;5051636;28;20037;-72
2022/02/14 08:35:44;;;;;;;6.63;2.80;;;9.90;99.90;;;;;;5033766;28;20486;-72
2022/02/14 08:38:10;;;;;;;6.07;2.80;;;9.90;99.90;;;;;;5051757;28;20036;-72
2022/02/14 08:40:36;;;;;;;4.05;2.33;;;9.90;99.90;;;;;;5051568;28;20048;-72
2022/02/14 08:43:03;;;;;;;5.55;2.75;;;9.90;99.90;;;;;;5051108;28;20438;-72
2022/02/14 08:45:33;;;;;;;5.70;2.30;;;9.90;99.90;;;;;;5051411;28;20045;-72
2022/02/14 08:48:00;;;;;;;5.60;2.78;;;9.90;99.90;;;;;;5033881;28;20044;-73
2022/02/14 08:50:26;;;;;;;3.33;2.00;;;9.90;99.90;;;;;;5051413;28;20112;-72
2022/02/14 08:52:52;;;;;;;4.10;2.92;;;9.90;99.90;;;;;;5051083;28;20096;-72
2022/02/14 08:55:18;;;;;;;6.15;2.70;;;9.90;99.90;;;;;;5052078;28;20473;-70
2022/02/14 08:57:45;;;;;;;5.95;2.80;;;9.90;99.90;;;;;;5052530;28;20040;-72
2022/02/14 09:00:11;;;;;;;6.90;2.88;;;9.90;99.90;;;;;;5051636;28;20037;-72
2022/02/14 09:02:38;;;;;;;5.07;2.33;;;9.90;99.90;;;;;;5051088;28;20045;-72
2022/02/14 09:05:04;;;;;;;5.18;2.53;;;9.90;99.90;;;;;;5050955;28;20063;-72
2022/02/14 09:07:29;;;;;;;5.38;2.40;;;10.00;99.90;;;;;;5051579;28;20029;-71
2022/02/14 09:09:55;;;;;;;6.05;2.95;;;10.00;99.90;;;;;;5051199;28;20045;-72
2022/02/14 09:12:22;;;;;;;5.80;2.92;;;10.00;99.90;;;;;;5051034;28;20064;-72
2022/02/14 09:14:48;;;;;;;6.10;2.80;;;9.90;99.90;;;;;;5086000;23;20051;-73
2022/02/14 09:17:14;;;;;;;5.80;2.30;;;9.90;99.90;;;;;;5053153;28;20041;-73
2022/02/14 09:19:41;;;;;;;5.95;2.90;;;9.90;99.90;;;;;;5052563;28;20398;-73
2022/02/14 09:22:07;;;;;;;6.50;2.80;;;9.90;99.90;;;;;;5071750;28;20040;-73
2022/02/14 09:24:32;;;;;;;6.10;2.97;;;9.80;99.90;;;;;;5087681;28;20040;-72
2022/02/14 09:26:58;;;;;;;4.97;3.33;;;9.80;99.90;;;;;;5094880;28;20039;-72
2022/02/14 09:29:24;;;;;;;5.55;3.33;;;9.70;99.90;;;;;;5076496;28;20036;-73
2022/02/14 09:31:52;;;;;;;4.88;3.55;;;9.50;99.90;;;;;;5094405;28;20096;-72
2022/02/14 09:34:19;;;;;;;5.80;3.28;;;9.40;99.90;;;;;;5076747;28;20090;-73
2022/02/14 09:36:46;;;;;;;6.90;3.40;;;9.30;99.90;;;;;;5064057;28;20047;-72
2022/02/14 09:39:12;;;;;;;6.10;3.38;;;9.10;99.90;;;;;;5074378;28;20078;-72
2022/02/14 09:41:38;;;;;;;6.60;3.28;;;9.10;99.90;;;;;;5073763;28;20043;-75
2022/02/14 09:44:06;;;;;;;7.35;3.40;;;9.00;99.90;;;;;;5054736;28;20028;-75
2022/02/14 09:46:34;;;;;;;6.45;3.78;;;9.00;99.90;;;;;;5072285;28;20040;-75
2022/02/14 09:49:02;;;;;;;5.80;4.13;;;8.90;99.90;;;;;;5054631;28;20142;-75
2022/02/14 09:51:29;;;;;;;7.80;4.18;;;8.90;99.90;;;;;;5054310;28;20040;-75
2022/02/14 09:53:55;;;;;;;8.27;4.72;;;8.90;99.90;;;;;;5037413;28;20040;-75
2022/02/14 09:56:22;;;;;;;6.57;4.18;;;8.90;99.90;;;;;;5053994;28;20055;-75
2022/02/14 09:58:48;;;;;;;7.35;4.93;;;8.90;99.90;;;;;;5072079;28;20055;-74
2022/02/14 10:01:14;;;;;;;7.45;4.28;;;9.00;99.90;;;;;;5055522;28;20055;-76
2022/02/14 10:03:49;;;;;;;6.47;3.70;;;9.00;99.90;;;;;;5073921;28;20051;-74
2022/02/14 10:06:25;;;;;;;7.35;4.47;;;9.00;99.90;;;;;;5039304;28;20482;-75
2022/02/14 10:09:07;;;;;;;6.53;4.20;;;9.10;99.90;;;;;;5073916;28;20036;-74
2022/02/14 10:11:35;;;;;;;6.50;4.65;;;9.10;99.90;;;;;;5055493;28;20041;-74
2022/02/14 10:14:17;;;;;;;6.90;5.05;;;9.00;99.90;;;;;;5055845;28;20048;-74
2022/02/14 10:17:08;;;;;;;7.50;5.00;;;9.10;99.90;;;;;;5039134;28;20055;-74
2022/02/14 10:19:37;;;;;;;5.25;4.20;;;9.20;99.90;;;;;;5055914;28;20139;-75
2022/02/14 10:22:09;;;;;;;5.05;3.65;;;9.20;99.90;;;;;;5055308;28;20040;-74
2022/02/14 10:24:44;;;;;;;8.90;4.22;;;9.20;99.90;;;;;;5073541;28;20468;-75
2022/02/14 10:27:11;;;;;;;7.93;4.65;;;9.20;99.90;;;;;;5055884;28;20436;-74
2022/02/14 10:29:37;;;;;;;7.38;4.20;;;9.20;99.90;;;;;;5039163;28;20071;-75
2022/02/14 10:32:15;;;;;;;5.93;3.53;;;9.10;99.90;;;;;;5038284;28;20087;-74
2022/02/14 10:34:49;;;;;;;5.13;3.35;;;9.10;99.90;;;;;;5073361;28;20036;-74
2022/02/14 10:37:16;;;;;;;6.28;3.78;;;9.10;99.90;;;;;;5055455;28;20497;-75
2022/02/14 10:39:45;;;;;;;9.52;4.03;;;9.20;99.90;;;;;;5055235;28;20090;-75
2022/02/14 10:42:12;;;;;;;5.50;3.42;;;9.30;99.90;;;;;;5055081;28;20098;-75
2022/02/14 10:47:32;;;;;;;4.63;3.38;;;9.40;99.90;;;;;;5055275;28;20102;-75
2022/02/14 10:50:03;;;;;;;6.00;2.97;;;9.40;99.90;;;;;;5055197;28;20101;-74
2022/02/14 10:52:42;;;;;;;7.30;2.85;;;9.30;99.90;;;;;;5055043;28;20036;-75
2022/02/14 10:55:10;;;;;;;4.75;2.80;;;9.30;99.90;;;;;;5054805;28;20044;-75
2022/02/14 10:57:39;;;;;;;7.28;2.75;;;9.20;99.90;;;;;;5054963;28;20049;-75
2022/02/14 11:00:08;;;;;;;5.72;2.30;;;9.20;99.90;;;;;;5038252;28;20087;-75
2022/02/14 11:02:34;;;;;;;5.53;2.50;;;9.20;99.90;;;;;;5038006;28;20037;-74
2022/02/14 11:05:00;;;;;;;4.85;2.53;;;9.20;99.90;;;;;;5054601;28;20058;-75
2022/02/14 11:07:27;;;;;;;9.60;3.08;;;9.20;99.90;;;;;;5054702;28;20060;-76
2022/02/14 11:09:56;;;;;;;6.78;3.08;;;9.20;99.90;;;;;;5054536;28;20045;-75
2022/02/14 11:12:23;;;;;;;5.60;3.50;;;9.20;99.90;;;;;;5054414;28;20053;-75
2022/02/14 11:14:57;;;;;;;4.00;3.00;;;9.30;99.90;;;;;;5054343;28;20490;-75
2022/02/14 11:17:28;;;;;;;5.40;3.30;;;9.30;99.90;;;;;;5054602;28;20048;-75
2022/02/14 11:19:58;;;;;;;3.97;3.38;;;9.30;99.90;;;;;;5054508;28;20071;-75
2022/02/14 11:22:27;;;;;;;4.40;3.30;;;9.40;99.90;;;;;;5037401;28;20048;-75
2022/02/14 11:25:06;;;;;;;6.85;3.25;;;9.50;99.90;;;;;;5054418;28;20071;-75
2022/02/14 11:27:37;;;;;;;5.18;3.40;;;9.60;99.90;;;;;;5038027;28;20062;-74
2022/02/14 11:30:08;;;;;;;5.53;3.28;;;9.60;99.90;;;;;;5054317;28;20041;-74
2022/02/14 11:32:39;;;;;;;5.85;3.35;;;9.70;99.90;;;;;;5054027;28;20049;-74
2022/02/14 11:35:14;;;;;;;5.28;3.53;;;9.70;99.90;;;;;;5054193;28;20517;-74
2022/02/14 11:37:54;;;;;;;5.55;3.67;;;9.80;99.90;;;;;;5054168;28;20438;-75
2022/02/14 11:40:31;;;;;;;5.70;3.35;;;9.80;99.90;;;;;;5054219;28;20051;-75
2022/02/14 11:43:15;;;;;;;6.85;4.40;;;9.80;99.90;;;;;;5037091;28;20058;-75
2022/02/14 11:45:41;;;;;;;5.63;3.25;;;9.80;99.90;;;;;;5053383;28;20144;-75
2022/02/14 11:48:21;;;;;;;6.00;3.45;;;9.80;99.90;;;;;;5053918;28;20040;-74
2022/02/14 11:50:47;;;;;;;5.75;3.88;;;9.80;99.90;;;;;;5053792;28;20410;-77
2022/02/14 11:53:34;;;;;;;5.47;3.88;;;9.80;99.90;;;;;;5053824;28;20036;-75
2022/02/14 11:56:18;;;;;;;5.55;4.00;;;9.80;99.90;;;;;;5053762;28;20498;-75
2022/02/14 11:59:05;;;;;;;7.57;4.15;;;9.70;99.90;;;;;;5053888;28;20071;-74
2022/02/14 12:01:36;;;;;;;5.20;4.15;;;9.70;99.90;;;;;;5037325;28;20048;-75
2022/02/14 12:04:31;;;;;;;7.07;4.43;;;9.70;99.90;;;;;;5053855;28;20055;-75
2022/02/14 12:07:15;;;;;;;9.10;5.00;;;9.70;99.90;;;;;;5071863;28;20123;-75
2022/02/14 12:09:56;;;;;;;7.18;4.65;;;9.60;99.90;;;;;;5053753;28;20041;-75
2022/02/14 12:12:44;;;;;;;7.93;4.90;;;9.60;99.90;;;;;;5053398;28;20150;-74
2022/02/14 12:20:49;;;;;;;5.47;4.35;;;9.70;99.90;;;;;;5053427;28;20109;-75
2022/02/14 12:23:26;;;;;;;5.88;4.90;;;9.70;99.90;;;;;;5053610;28;20413;-74
2022/02/14 12:25:52;;;;;;;6.97;4.38;;;9.70;99.90;;;;;;5071780;28;20048;-75
2022/02/14 12:28:17;;;;;;;4.32;3.92;;;9.80;99.90;;;;;;5071614;28;20041;-75
2022/02/14 12:30:46;;;;;;;8.98;4.82;;;9.80;99.90;;;;;;5053371;28;20036;-75
2022/02/14 12:33:14;;;;;;;5.80;4.25;;;9.80;99.90;;;;;;5053132;28;20037;-75
2022/02/14 12:35:45;;;;;;;5.70;4.05;;;9.90;99.90;;;;;;5053410;28;20045;-75
2022/02/14 12:38:11;;;;;;;7.78;3.83;;;9.90;99.90;;;;;;5053782;28;20493;-75
2022/02/14 12:40:52;;;;;;;6.47;3.55;;;9.90;99.90;;;;;;5071437;28;20036;-74
2022/02/14 12:43:25;;;;;;;6.07;4.05;;;9.80;99.90;;;;;;5053423;28;20052;-74
2022/02/14 12:45:53;;;;;;;6.38;4.20;;;9.80;99.90;;;;;;5053345;28;20047;-76
2022/02/14 12:48:27;;;;;;;6.18;4.10;;;9.80;99.90;;;;;;5071480;28;20044;-74
2022/02/14 12:50:54;;;;;;;6.65;3.83;;;9.80;99.90;;;;;;5053155;28;20425;-74
2022/02/14 12:53:19;;;;;;;6.72;3.38;;;9.80;99.90;;;;;;5053131;28;20040;-76
2022/02/14 12:55:45;;;;;;;4.43;2.50;;;9.80;99.90;;;;;;5072456;28;20043;-75
2022/02/14 12:58:12;;;;;;;6.78;3.15;;;9.80;99.90;;;;;;5075254;28;20637;-75
2022/02/14 13:00:41;;;;;;;7.95;3.00;;;9.80;99.90;;;;;;5057165;28;20497;-74
2022/02/14 13:03:15;;;;;;;6.10;3.05;;;9.80;99.90;;;;;;5074683;28;20040;-74
2022/02/14 13:05:49;;;;;;;4.90;2.13;;;9.80;99.90;;;;;;5074999;28;20350;-74
2022/02/14 13:08:23;;;;;;;5.68;1.98;;;9.80;99.90;;;;;;5056930;28;20107;-74